Time;durP1;ratioP1;P1;durP2;ratioP2;P2;SDS_P1;SDS_P2;PMS_P1;PMS_P2;Temp;Humidity;BMP_temperature;BMP_pressure;BME280_temperature;BME280_humidity;BME280_pressure;Samples;Min_cycle;Max_cycle;Signal;HPM_P1;HPM_P2
2021/04/09 00:00:44;;;;;;;20.80;11.90;;;6.70;99.90;;;;;;5068217;28;20188;-76
2021/04/09 00:03:10;;;;;;;20.20;11.77;;;6.70;99.90;;;;;;5061983;28;20199;-76
2021/04/09 00:05:35;;;;;;;21.30;11.93;;;6.70;99.90;;;;;;5066617;28;20847;-76
2021/04/09 00:08:01;;;;;;;22.80;11.70;;;6.70;99.90;;;;;;5067550;28;20816;-76
2021/04/09 00:10:28;;;;;;;21.83;11.20;;;6.70;99.90;;;;;;5065574;28;20178;-76
2021/04/09 00:12:54;;;;;;;24.63;10.90;;;6.70;99.90;;;;;;5068486;28;20229;-76
2021/04/09 00:15:20;;;;;;;19.47;11.27;;;6.60;99.90;;;;;;5066497;28;20187;-77
2021/04/09 00:17:46;;;;;;;17.83;10.53;;;6.60;99.90;;;;;;5069718;28;20222;-76
2021/04/09 00:20:16;;;;;;;21.57;11.43;;;6.70;99.90;;;;;;5071725;28;20214;-76
2021/04/09 00:22:42;;;;;;;21.20;11.83;;;6.70;99.90;;;;;;5069407;28;20328;-76
2021/04/09 00:25:09;;;;;;;20.40;10.13;;;6.70;99.90;;;;;;5071786;28;20219;-76
2021/04/09 00:27:35;;;;;;;18.63;10.17;;;6.80;99.90;;;;;;5065638;28;20668;-76
2021/04/09 00:30:01;;;;;;;19.93;10.43;;;6.80;99.90;;;;;;5070442;28;20192;-76
2021/04/09 00:32:26;;;;;;;20.60;10.50;;;7.00;99.90;;;;;;5072600;28;20176;-75
2021/04/09 00:34:52;;;;;;;20.33;11.00;;;6.90;99.90;;;;;;5070485;28;20188;-75
2021/04/09 00:37:18;;;;;;;17.33;9.80;;;6.90;99.90;;;;;;5072583;28;20180;-76
2021/04/09 00:39:43;;;;;;;18.23;10.50;;;6.90;99.90;;;;;;5071139;28;20199;-76
2021/04/09 00:42:17;;;;;;;20.33;9.67;;;7.00;99.90;;;;;;5070869;28;20231;-76
2021/04/09 00:44:43;;;;;;;15.70;9.63;;;7.00;99.90;;;;;;5074441;28;20590;-76
2021/04/09 00:47:09;;;;;;;18.77;9.97;;;6.90;99.90;;;;;;5069821;28;20242;-75
2021/04/09 00:49:35;;;;;;;23.33;9.67;;;6.90;99.90;;;;;;5074371;28;20212;-75
2021/04/09 00:52:01;;;;;;;19.67;9.63;;;7.00;99.90;;;;;;5063995;28;20180;-76
2021/04/09 00:54:26;;;;;;;18.67;9.40;;;7.00;99.90;;;;;;5071343;28;20195;-76
2021/04/09 00:56:52;;;;;;;19.90;9.23;;;7.10;99.90;;;;;;5073313;28;20188;-76
2021/04/09 00:59:18;;;;;;;20.00;9.60;;;7.10;99.90;;;;;;5053213;28;20247;-76
2021/04/09 01:01:44;;;;;;;15.70;8.83;;;7.10;99.90;;;;;;5073019;28;20184;-76
2021/04/09 01:04:10;;;;;;;19.53;10.07;;;7.20;99.90;;;;;;5071932;28;20644;-75
2021/04/09 01:06:36;;;;;;;16.60;9.30;;;7.30;99.90;;;;;;5071030;28;20197;-75
2021/04/09 01:09:02;;;;;;;22.10;10.20;;;7.40;99.90;;;;;;5072333;28;20673;-75
2021/04/09 01:11:28;;;;;;;21.50;9.40;;;7.50;99.90;;;;;;5070469;28;20203;-76
2021/04/09 01:13:53;;;;;;;18.30;9.63;;;7.70;99.90;;;;;;5071056;28;20255;-76
2021/04/09 01:16:31;;;;;;;20.73;9.37;;;7.70;99.90;;;;;;5073420;28;20188;-76
2021/04/09 01:19:21;;;;;;;19.00;8.80;;;7.80;99.90;;;;;;5069156;28;20240;-76
2021/04/09 01:22:01;;;;;;;18.33;9.10;;;7.80;99.90;;;;;;5068499;28;20267;-77
2021/04/09 01:24:47;;;;;;;22.00;9.50;;;7.80;99.90;;;;;;5070488;28;20222;-76
2021/04/09 01:27:35;;;;;;;25.40;9.77;;;7.70;99.90;;;;;;5061864;28;20200;-75
2021/04/09 01:30:29;;;;;;;17.90;9.37;;;7.70;99.90;;;;;;5067724;28;20189;-75
2021/04/09 01:32:55;;;;;;;19.80;9.17;;;7.70;99.90;;;;;;5068887;28;20185;-76
2021/04/09 01:35:23;;;;;;;19.03;9.43;;;7.70;99.90;;;;;;5065420;28;20273;-76
2021/04/09 01:37:57;;;;;;;17.00;9.03;;;7.70;99.90;;;;;;5069247;28;20187;-76
2021/04/09 01:40:30;;;;;;;19.53;9.40;;;7.70;99.90;;;;;;5067946;28;20184;-76
2021/04/09 01:43:01;;;;;;;17.53;9.70;;;7.70;99.90;;;;;;5068922;28;20236;-77
2021/04/09 01:45:28;;;;;;;18.40;9.57;;;7.70;99.90;;;;;;5085406;28;20268;-76
2021/04/09 01:47:55;;;;;;;18.10;9.77;;;7.80;99.90;;;;;;5068090;28;20200;-75
2021/04/09 01:50:21;;;;;;;20.87;9.53;;;7.80;99.90;;;;;;5073495;28;20183;-76
2021/04/09 01:52:51;;;;;;;19.50;9.23;;;7.80;99.90;;;;;;5067052;28;20180;-76
2021/04/09 01:55:18;;;;;;;19.13;9.73;;;7.80;99.90;;;;;;5069707;28;20561;-76
2021/04/09 01:57:45;;;;;;;16.50;9.07;;;7.80;99.90;;;;;;5070728;28;20660;-75
2021/04/09 02:00:17;;;;;;;21.17;9.37;;;7.70;99.90;;;;;;5069476;28;20233;-76
2021/04/09 02:02:44;;;;;;;18.13;9.50;;;7.60;99.90;;;;;;5071587;28;20199;-76
2021/04/09 02:05:15;;;;;;;17.83;9.60;;;7.50;99.90;;;;;;5067577;28;20175;-76
2021/04/09 02:07:42;;;;;;;19.10;9.27;;;7.50;99.90;;;;;;5070376;28;20176;-76
2021/04/09 02:10:09;;;;;;;19.27;9.33;;;7.50;99.90;;;;;;5064120;28;20267;-76
2021/04/09 02:12:35;;;;;;;21.00;10.07;;;7.60;99.90;;;;;;5066904;28;20184;-77
2021/04/09 02:15:02;;;;;;;21.13;10.43;;;7.70;99.90;;;;;;5071065;28;20179;-76
2021/04/09 02:17:28;;;;;;;18.77;9.83;;;7.70;99.90;;;;;;5064377;28;20185;-76
2021/04/09 02:19:54;;;;;;;19.63;9.40;;;7.70;99.90;;;;;;5069563;28;20184;-76
2021/04/09 02:22:20;;;;;;;20.53;9.83;;;7.70;99.90;;;;;;5069227;28;20172;-76
2021/04/09 02:24:49;;;;;;;22.13;9.73;;;7.60;99.90;;;;;;5049725;28;20304;-76
2021/04/09 02:27:16;;;;;;;21.40;9.77;;;7.50;99.90;;;;;;5071452;28;20188;-76
2021/04/09 02:29:43;;;;;;;17.37;9.57;;;7.40;99.90;;;;;;5069697;28;20243;-76
2021/04/09 02:32:10;;;;;;;18.87;9.73;;;7.40;99.90;;;;;;5068506;28;20190;-76
2021/04/09 02:34:36;;;;;;;18.60;9.93;;;7.40;99.90;;;;;;5068803;28;20184;-76
2021/04/09 02:37:02;;;;;;;19.00;9.60;;;7.40;99.90;;;;;;5067070;28;20192;-76
2021/04/09 02:39:30;;;;;;;19.60;9.90;;;7.40;99.90;;;;;;5067947;28;20266;-76
2021/04/09 02:42:05;;;;;;;18.57;10.40;;;7.40;99.90;;;;;;5070432;28;20711;-76
2021/04/09 02:44:30;;;;;;;19.53;9.67;;;7.40;99.90;;;;;;5059981;28;20196;-76
2021/04/09 02:47:05;;;;;;;18.07;9.43;;;7.30;99.90;;;;;;5069702;28;20184;-76
2021/04/09 02:49:45;;;;;;;19.23;9.23;;;7.40;99.90;;;;;;5047734;28;20684;-76
2021/04/09 02:52:26;;;;;;;16.43;8.63;;;7.40;99.90;;;;;;5069042;28;20172;-77
2021/04/09 02:54:53;;;;;;;21.63;8.07;;;7.30;99.90;;;;;;5066682;28;20207;-76
2021/04/09 02:57:21;;;;;;;16.17;7.73;;;7.30;99.90;;;;;;5068257;28;20198;-75
2021/04/09 02:59:51;;;;;;;15.97;8.23;;;7.20;99.90;;;;;;5070342;28;20212;-75
2021/04/09 03:02:18;;;;;;;18.50;8.50;;;7.20;99.90;;;;;;5050757;28;20215;-76
2021/04/09 03:04:45;;;;;;;17.20;7.30;;;7.20;99.90;;;;;;5068310;28;20580;-76
2021/04/09 03:07:11;;;;;;;18.00;8.03;;;7.20;99.90;;;;;;5066888;28;20810;-76
2021/04/09 03:09:38;;;;;;;17.10;8.53;;;7.30;99.90;;;;;;5068451;28;20261;-76
2021/04/09 03:12:18;;;;;;;17.53;7.83;;;7.30;99.90;;;;;;5066935;28;20176;-76
2021/04/09 03:14:46;;;;;;;17.40;7.70;;;7.30;99.90;;;;;;5065964;28;20183;-76
2021/04/09 03:17:18;;;;;;;18.30;8.10;;;7.30;99.90;;;;;;5071273;28;20183;-76
2021/04/09 03:19:43;;;;;;;16.47;7.77;;;7.10;99.90;;;;;;5065003;28;20216;-77
2021/04/09 03:22:10;;;;;;;17.57;7.73;;;7.10;99.90;;;;;;5052735;28;20286;-76
2021/04/09 03:24:37;;;;;;;19.50;8.00;;;7.20;99.90;;;;;;5070493;28;20218;-76
2021/04/09 03:27:05;;;;;;;14.93;7.10;;;7.20;99.90;;;;;;5068473;28;20655;-76
2021/04/09 03:29:30;;;;;;;16.87;8.10;;;7.20;99.90;;;;;;5071340;28;20644;-76
2021/04/09 03:31:56;;;;;;;18.90;9.20;;;7.20;99.90;;;;;;5065622;28;20187;-77
2021/04/09 03:34:22;;;;;;;17.83;8.80;;;7.20;99.90;;;;;;5066704;28;20183;-76
2021/04/09 03:36:48;;;;;;;20.27;9.47;;;7.10;99.90;;;;;;5084073;28;20536;-76
2021/04/09 03:39:13;;;;;;;22.57;9.97;;;7.00;99.90;;;;;;5065670;28;20187;-76
2021/04/09 03:41:39;;;;;;;20.93;10.43;;;7.00;99.90;;;;;;5065118;28;20216;-75
2021/04/09 03:44:05;;;;;;;24.53;10.57;;;7.00;99.90;;;;;;5064752;28;20719;-76
2021/04/09 03:46:30;;;;;;;23.10;11.17;;;7.00;99.90;;;;;;5069627;28;20183;-76
2021/04/09 03:48:56;;;;;;;27.60;12.40;;;7.10;99.90;;;;;;5067239;28;20217;-76
2021/04/09 03:51:22;;;;;;;27.57;11.60;;;7.10;99.90;;;;;;5068977;28;20267;-76
2021/04/09 03:53:47;;;;;;;26.30;11.97;;;7.00;99.90;;;;;;5067729;28;20531;-75
2021/04/09 03:56:13;;;;;;;29.10;13.17;;;7.00;99.90;;;;;;5047361;28;20736;-75
2021/04/09 03:58:39;;;;;;;27.17;12.23;;;7.10;99.90;;;;;;5066193;28;20191;-75
2021/04/09 04:01:04;;;;;;;26.63;12.97;;;7.10;99.90;;;;;;5065610;28;20214;-75
2021/04/09 04:03:30;;;;;;;29.30;14.00;;;7.10;99.90;;;;;;5046118;28;20187;-76
2021/04/09 04:05:56;;;;;;;29.33;13.90;;;7.10;99.90;;;;;;5067573;28;20188;-75
2021/04/09 04:08:21;;;;;;;30.10;14.33;;;7.10;99.90;;;;;;5064046;28;20235;-75
2021/04/09 04:10:47;;;;;;;30.50;15.03;;;7.00;99.90;;;;;;5068260;28;20181;-75
2021/04/09 04:13:13;;;;;;;31.90;14.53;;;7.00;99.90;;;;;;5067471;28;20639;-76
2021/04/09 04:15:38;;;;;;;34.53;15.93;;;7.00;99.90;;;;;;5068691;28;20189;-76
2021/04/09 04:18:04;;;;;;;36.80;16.67;;;7.00;99.90;;;;;;5053086;28;20183;-77
2021/04/09 04:20:30;;;;;;;36.07;16.60;;;7.00;99.90;;;;;;5069266;28;20183;-76
2021/04/09 04:22:55;;;;;;;37.50;16.67;;;7.00;99.90;;;;;;5068191;28;20195;-76
2021/04/09 04:25:21;;;;;;;35.47;16.10;;;7.00;99.90;;;;;;5069757;28;20206;-76
2021/04/09 04:27:47;;;;;;;39.00;17.40;;;7.00;99.90;;;;;;5066935;28;20219;-76
2021/04/09 04:30:13;;;;;;;35.90;15.93;;;7.00;99.90;;;;;;5067474;28;20183;-76
2021/04/09 04:32:39;;;;;;;31.70;15.67;;;7.10;99.90;;;;;;5051172;28;20211;-76
2021/04/09 04:35:05;;;;;;;34.40;15.77;;;7.10;99.90;;;;;;5068827;28;20180;-76
2021/04/09 04:37:31;;;;;;;32.17;15.63;;;7.20;99.90;;;;;;5067689;28;20216;-75
2021/04/09 04:39:57;;;;;;;28.93;13.43;;;7.30;99.90;;;;;;5067458;28;20203;-76
2021/04/09 04:42:23;;;;;;;27.93;13.30;;;7.40;99.90;;;;;;5068685;28;20247;-76
2021/04/09 04:44:48;;;;;;;26.80;12.13;;;7.30;99.90;;;;;;5067541;28;20183;-76
2021/04/09 04:47:14;;;;;;;27.73;12.67;;;7.30;99.90;;;;;;5068627;28;20176;-76
2021/04/09 04:49:39;;;;;;;22.57;11.13;;;7.40;99.90;;;;;;5065299;28;20207;-76
2021/04/09 04:52:05;;;;;;;26.63;12.13;;;7.30;99.90;;;;;;5069210;28;20651;-76
2021/04/09 04:54:31;;;;;;;22.30;10.90;;;7.30;99.90;;;;;;5065207;28;20644;-76
2021/04/09 04:56:57;;;;;;;24.90;11.80;;;7.30;99.90;;;;;;5067722;28;20313;-76
2021/04/09 04:59:22;;;;;;;25.53;11.47;;;7.30;99.90;;;;;;5064606;28;20187;-76
2021/04/09 05:01:48;;;;;;;24.93;11.53;;;7.20;99.90;;;;;;5065999;28;20203;-75
2021/04/09 05:04:13;;;;;;;24.10;10.87;;;7.20;99.90;;;;;;5066280;28;20670;-75
2021/04/09 05:06:39;;;;;;;23.53;11.30;;;7.10;99.90;;;;;;5070191;28;20219;-76
2021/04/09 05:09:06;;;;;;;24.57;11.80;;;7.10;99.90;;;;;;5071699;28;20207;-76
2021/04/09 05:11:32;;;;;;;25.97;11.23;;;7.00;99.90;;;;;;5050612;28;20171;-76
2021/04/09 05:13:58;;;;;;;27.50;11.50;;;6.90;99.90;;;;;;5073450;28;20207;-75
2021/04/09 05:16:23;;;;;;;25.90;11.97;;;6.90;99.90;;;;;;5069013;28;20658;-76
2021/04/09 05:18:49;;;;;;;26.60;11.70;;;6.90;99.90;;;;;;5072071;28;20521;-76
2021/04/09 05:21:15;;;;;;;24.23;11.97;;;6.90;99.90;;;;;;5069064;28;20187;-76
2021/04/09 05:23:40;;;;;;;26.50;11.17;;;6.90;99.90;;;;;;5070525;28;20532;-76
2021/04/09 05:26:06;;;;;;;23.27;11.73;;;6.90;99.90;;;;;;5069755;28;20249;-76
2021/04/09 05:28:32;;;;;;;26.37;11.57;;;6.90;99.90;;;;;;5069797;28;20210;-76
2021/04/09 05:30:57;;;;;;;24.03;11.60;;;7.00;99.90;;;;;;5067696;28;20171;-76
2021/04/09 05:33:24;;;;;;;24.23;11.03;;;7.10;99.90;;;;;;5071167;28;20230;-76
2021/04/09 05:35:50;;;;;;;20.43;10.43;;;7.10;99.90;;;;;;5070722;28;20513;-77
2021/04/09 05:38:15;;;;;;;23.20;10.67;;;7.20;99.90;;;;;;5072805;28;20282;-76
2021/04/09 05:40:41;;;;;;;23.63;11.60;;;7.20;99.90;;;;;;5069001;28;20267;-76
2021/04/09 05:43:07;;;;;;;24.30;11.30;;;7.30;99.90;;;;;;5071575;28;20311;-76
2021/04/09 05:45:33;;;;;;;22.97;11.30;;;7.50;99.90;;;;;;5067547;28;20207;-75
2021/04/09 05:48:04;;;;;;;23.90;10.43;;;7.70;99.90;;;;;;5049017;28;20216;-76
2021/04/09 05:50:31;;;;;;;25.20;10.67;;;8.00;99.90;;;;;;5062438;28;20590;-77
2021/04/09 05:52:57;;;;;;;24.97;10.83;;;8.30;99.90;;;;;;5070540;28;20671;-76
2021/04/09 05:55:23;;;;;;;23.33;11.00;;;8.40;99.90;;;;;;5071708;28;20173;-76
2021/04/09 05:57:48;;;;;;;24.37;10.97;;;8.40;99.90;;;;;;5070023;28;20175;-76
2021/04/09 06:00:14;;;;;;;21.17;10.63;;;8.50;99.90;;;;;;5068952;28;20179;-77
2021/04/09 06:02:40;;;;;;;25.63;10.80;;;8.70;99.90;;;;;;5071097;28;20199;-77
2021/04/09 06:05:06;;;;;;;22.87;11.27;;;8.70;99.90;;;;;;5067125;28;20180;-77
2021/04/09 06:07:32;;;;;;;25.90;12.07;;;8.70;99.90;;;;;;5071366;28;20196;-77
2021/04/09 06:09:58;;;;;;;25.27;11.87;;;8.70;99.90;;;;;;5069284;28;20576;-77
2021/04/09 06:12:24;;;;;;;26.83;12.93;;;8.90;99.90;;;;;;5070717;28;20186;-77
2021/04/09 06:14:52;;;;;;;28.10;13.63;;;9.00;99.90;;;;;;5069574;28;20172;-77
2021/04/09 06:17:18;;;;;;;27.23;13.47;;;9.00;99.90;;;;;;5068571;28;20175;-75
2021/04/09 06:19:43;;;;;;;26.63;12.37;;;9.00;99.90;;;;;;5069097;28;20990;-74
2021/04/09 06:22:09;;;;;;;22.53;12.00;;;9.00;99.90;;;;;;5065874;28;20276;-77
2021/04/09 06:24:37;;;;;;;30.77;12.40;;;9.20;99.90;;;;;;5065776;28;20581;-76
2021/04/09 06:27:03;;;;;;;28.27;11.77;;;9.30;99.90;;;;;;5068820;28;20198;-77
2021/04/09 06:29:29;;;;;;;27.20;12.43;;;9.40;99.90;;;;;;5067253;28;20213;-76
2021/04/09 06:31:55;;;;;;;26.00;12.93;;;9.50;99.90;;;;;;5052586;28;20188;-76
2021/04/09 06:34:20;;;;;;;30.30;13.63;;;9.70;99.90;;;;;;5069214;28;20182;-77
2021/04/09 06:36:46;;;;;;;25.87;13.00;;;9.90;99.90;;;;;;5069559;28;20187;-78
2021/04/09 06:39:12;;;;;;;26.53;13.00;;;10.20;99.90;;;;;;5062870;28;20712;-76
2021/04/09 06:41:39;;;;;;;33.97;14.47;;;10.40;99.90;;;;;;5068312;28;20769;-76
2021/04/09 06:44:06;;;;;;;30.93;13.67;;;10.70;99.90;;;;;;5071035;28;21063;-76
2021/04/09 06:46:35;;;;;;;33.17;13.10;;;11.00;99.90;;;;;;5068412;28;20191;-76
2021/04/09 06:49:01;;;;;;;27.47;13.90;;;11.50;99.90;;;;;;5070849;28;20208;-76
2021/04/09 06:51:27;;;;;;;26.33;13.37;;;12.30;99.90;;;;;;5069251;28;20183;-77
2021/04/09 06:53:54;;;;;;;28.67;13.30;;;12.70;99.90;;;;;;5069956;28;20222;-76
2021/04/09 06:56:22;;;;;;;28.10;14.30;;;12.90;99.90;;;;;;5065552;28;20664;-77
2021/04/09 06:58:49;;;;;;;34.37;14.80;;;13.10;99.90;;;;;;5064626;28;20183;-76
2021/04/09 07:01:22;;;;;;;34.83;14.53;;;13.50;99.90;;;;;;5061508;28;20272;-77
2021/04/09 07:03:48;;;;;;;30.17;13.93;;;14.30;99.10;;;;;;5066442;28;20189;-76
2021/04/09 07:06:14;;;;;;;28.43;12.77;;;14.90;97.10;;;;;;5064716;28;20578;-76
2021/04/09 07:08:43;;;;;;;24.17;13.27;;;15.30;95.70;;;;;;5069217;28;20198;-76
2021/04/09 07:11:10;;;;;;;24.23;12.67;;;15.80;93.40;;;;;;5064869;28;20218;-75
2021/04/09 07:13:52;;;;;;;23.87;13.00;;;16.20;92.00;;;;;;5067152;28;20183;-76
2021/04/09 07:16:18;;;;;;;23.17;11.83;;;16.10;91.60;;;;;;5066885;28;20184;-76
2021/04/09 07:18:55;;;;;;;23.30;11.73;;;15.60;91.80;;;;;;5067717;28;20194;-77
2021/04/09 07:21:26;;;;;;;29.40;11.57;;;15.30;92.00;;;;;;5064265;28;20252;-75
2021/04/09 07:24:14;;;;;;;24.50;12.20;;;15.00;91.90;;;;;;5066292;28;20225;-75
2021/04/09 07:26:55;;;;;;;23.43;11.10;;;15.50;92.90;;;;;;5066388;28;20194;-77
2021/04/09 07:29:30;;;;;;;26.20;10.97;;;15.60;92.10;;;;;;5067125;28;20206;-77
2021/04/09 07:32:09;;;;;;;21.00;10.00;;;15.80;90.80;;;;;;5064518;28;20176;-76
2021/04/09 07:34:52;;;;;;;24.20;10.40;;;15.90;90.50;;;;;;5066477;28;20182;-76
2021/04/09 07:37:20;;;;;;;29.27;10.60;;;15.90;90.40;;;;;;5048301;28;20230;-76
2021/04/09 07:39:45;;;;;;;31.13;11.07;;;15.60;90.50;;;;;;5064933;28;20246;-77
2021/04/09 07:42:13;;;;;;;21.80;10.30;;;15.40;90.30;;;;;;5070123;28;20218;-76
2021/04/09 07:44:39;;;;;;;22.33;9.90;;;15.10;90.90;;;;;;5065691;28;20184;-76
2021/04/09 07:47:12;;;;;;;18.53;9.40;;;15.40;91.40;;;;;;5048525;28;20198;-76
2021/04/09 07:49:38;;;;;;;25.10;9.73;;;15.80;90.80;;;;;;5065944;28;20207;-77
2021/04/09 07:52:12;;;;;;;21.17;9.13;;;16.00;88.30;;;;;;5065135;28;20182;-76
2021/04/09 07:54:38;;;;;;;21.67;9.30;;;14.90;89.70;;;;;;5068529;28;20647;-76
2021/04/09 07:57:04;;;;;;;31.73;10.20;;;14.80;91.10;;;;;;5048674;28;20709;-77
2021/04/09 07:59:41;;;;;;;22.07;8.93;;;14.80;91.00;;;;;;5068043;28;20564;-76
2021/04/09 08:02:10;;;;;;;23.40;9.93;;;14.70;91.50;;;;;;5068696;28;20177;-77
2021/04/09 08:04:40;;;;;;;21.63;9.33;;;14.60;91.90;;;;;;5083087;28;20197;-75
2021/04/09 08:07:07;;;;;;;19.87;8.67;;;14.10;92.40;;;;;;5068343;28;20585;-75
2021/04/09 08:09:51;;;;;;;16.27;7.97;;;13.90;92.90;;;;;;5065916;28;20238;-75
2021/04/09 08:12:31;;;;;;;18.27;8.10;;;13.20;94.00;;;;;;5070641;28;20188;-75
2021/04/09 08:15:10;;;;;;;24.47;8.60;;;13.00;94.20;;;;;;5066319;28;20647;-80
2021/04/09 08:17:36;;;;;;;22.43;8.13;;;13.00;95.20;;;;;;5071350;28;20267;-78
2021/04/09 08:20:12;;;;;;;20.03;8.20;;;13.00;94.90;;;;;;5067831;28;20190;-78
2021/04/09 08:22:39;;;;;;;16.80;8.43;;;13.00;95.60;;;;;;5070545;28;20653;-78
2021/04/09 08:25:06;;;;;;;16.40;8.07;;;13.00;95.80;;;;;;5067382;28;20628;-76
2021/04/09 08:27:33;;;;;;;21.30;8.73;;;13.20;96.00;;;;;;5070491;28;20189;-75
2021/04/09 08:30:00;;;;;;;20.83;8.40;;;13.20;96.20;;;;;;5083015;28;20201;-76
2021/04/09 08:32:27;;;;;;;17.67;8.23;;;13.20;96.00;;;;;;5086607;28;20229;-75
2021/04/09 08:34:54;;;;;;;18.83;7.83;;;13.20;96.70;;;;;;5068506;28;20198;-75
2021/04/09 08:37:21;;;;;;;19.90;8.50;;;13.00;96.10;;;;;;5086036;28;20172;-75
2021/04/09 08:39:47;;;;;;;17.03;7.60;;;13.10;97.00;;;;;;5070756;28;20239;-76
2021/04/09 08:42:15;;;;;;;20.10;8.40;;;13.20;97.00;;;;;;5074685;28;20240;-75
2021/04/09 08:44:42;;;;;;;20.63;8.43;;;13.40;96.80;;;;;;5068229;28;20235;-77
2021/04/09 08:47:09;;;;;;;24.30;8.90;;;13.60;97.30;;;;;;5074043;28;20648;-77
2021/04/09 08:49:35;;;;;;;17.77;7.80;;;13.80;96.40;;;;;;5073428;28;20262;-77
2021/04/09 08:52:02;;;;;;;21.07;8.37;;;13.60;94.80;;;;;;5074772;28;20181;-77
2021/04/09 08:54:31;;;;;;;25.53;7.97;;;13.80;95.50;;;;;;5072830;28;20183;-77
2021/04/09 08:57:01;;;;;;;21.27;8.30;;;14.00;95.80;;;;;;5075704;28;20263;-77
2021/04/09 08:59:41;;;;;;;22.83;9.17;;;14.20;95.80;;;;;;5069217;28;20188;-76
2021/04/09 09:02:24;;;;;;;23.37;9.17;;;14.50;94.10;;;;;;5057558;28;20181;-78
2021/04/09 09:05:02;;;;;;;19.97;8.27;;;14.70;93.80;;;;;;5070862;28;20732;-77
2021/04/09 09:07:43;;;;;;;24.47;8.60;;;14.80;94.90;;;;;;5057876;28;20183;-77
2021/04/09 09:10:21;;;;;;;19.20;8.70;;;14.90;94.60;;;;;;5063601;28;20241;-77
2021/04/09 09:13:06;;;;;;;16.57;7.53;;;15.20;93.80;;;;;;5074208;28;20190;-78
2021/04/09 09:15:44;;;;;;;27.70;8.80;;;15.50;93.60;;;;;;5072464;28;20195;-77
2021/04/09 09:18:24;;;;;;;19.43;7.50;;;15.80;92.70;;;;;;5071798;28;20320;-77
2021/04/09 09:21:11;;;;;;;13.77;7.33;;;16.30;92.40;;;;;;5070609;28;20187;-77
2021/04/09 09:23:51;;;;;;;14.90;7.20;;;16.60;90.90;;;;;;5071543;28;20217;-78
2021/04/09 09:26:19;;;;;;;15.97;6.90;;;17.60;89.30;;;;;;5073621;28;20673;-78
2021/04/09 09:28:48;;;;;;;16.53;7.10;;;17.90;86.40;;;;;;5070294;28;20237;-76
2021/04/09 09:31:30;;;;;;;16.70;6.67;;;18.60;85.70;;;;;;5073589;28;20221;-76
2021/04/09 09:34:17;;;;;;;20.47;6.90;;;19.10;85.10;;;;;;5071826;28;20213;-77
2021/04/09 09:37:06;;;;;;;17.10;6.47;;;19.30;81.30;;;;;;5074802;28;20205;-77
2021/04/09 09:39:40;;;;;;;14.30;6.20;;;18.70;80.00;;;;;;5070577;28;20183;-78
2021/04/09 09:42:10;;;;;;;17.17;5.97;;;19.40;80.70;;;;;;5072166;28;20261;-78
2021/04/09 09:44:43;;;;;;;12.20;5.70;;;19.60;79.60;;;;;;5073553;28;20195;-78
2021/04/09 09:47:14;;;;;;;13.53;5.63;;;19.60;79.00;;;;;;5069378;28;20184;-77
2021/04/09 09:50:00;;;;;;;12.87;4.93;;;19.80;76.00;;;;;;5071778;28;21862;-77
2021/04/09 09:52:40;;;;;;;9.87;5.10;;;20.40;76.30;;;;;;5088443;28;20587;-77
2021/04/09 09:55:14;;;;;;;13.77;5.30;;;20.50;73.00;;;;;;5074826;28;20198;-78
2021/04/09 09:57:45;;;;;;;11.00;5.20;;;21.10;72.70;;;;;;5073521;28;20209;-78
2021/04/09 10:00:11;;;;;;;13.67;5.27;;;21.10;69.70;;;;;;5072183;28;20198;-78
2021/04/09 10:02:37;;;;;;;8.80;4.60;;;21.70;68.40;;;;;;5056204;28;20203;-78
2021/04/09 10:05:05;;;;;;;13.00;5.20;;;21.80;67.30;;;;;;5070758;28;20184;-78
2021/04/09 10:07:30;;;;;;;12.03;4.50;;;22.50;67.50;;;;;;5072406;28;20255;-77
2021/04/09 10:09:56;;;;;;;15.27;5.77;;;23.00;65.30;;;;;;5065992;28;20204;-77
2021/04/09 10:12:22;;;;;;;14.17;5.23;;;22.70;63.10;;;;;;5073842;28;20193;-76
2021/04/09 10:14:49;;;;;;;13.03;5.10;;;23.00;63.70;;;;;;5069199;28;20178;-76
2021/04/09 10:17:15;;;;;;;12.47;5.13;;;23.00;63.50;;;;;;5070919;28;20630;-76
2021/04/09 10:20:05;;;;;;;12.03;5.20;;;22.50;62.30;;;;;;5070238;28;20265;-76
2021/04/09 10:22:31;;;;;;;17.77;5.50;;;22.80;62.30;;;;;;5066313;28;20309;-77
2021/04/09 10:24:56;;;;;;;13.20;5.30;;;23.10;62.50;;;;;;5073089;28;20749;-77
2021/04/09 10:27:22;;;;;;;11.63;5.20;;;23.90;61.10;;;;;;5072612;28;20183;-76
2021/04/09 10:29:48;;;;;;;12.07;5.67;;;24.20;58.70;;;;;;5068622;28;20202;-76
2021/04/09 10:32:17;;;;;;;16.63;6.43;;;24.10;60.80;;;;;;5075182;28;20199;-77
2021/04/09 10:34:46;;;;;;;12.70;6.13;;;24.10;58.90;;;;;;5055922;28;20644;-77
2021/04/09 10:37:21;;;;;;;12.33;6.00;;;24.00;60.40;;;;;;5071027;28;20690;-77
2021/04/09 10:39:47;;;;;;;13.37;5.93;;;23.70;60.00;;;;;;5068814;28;20191;-77
2021/04/09 10:42:12;;;;;;;12.73;5.67;;;23.60;60.30;;;;;;5069377;28;20237;-77
2021/04/09 10:44:38;;;;;;;13.27;5.83;;;22.80;60.40;;;;;;5069110;28;20203;-77
2021/04/09 10:47:06;;;;;;;13.50;6.13;;;22.40;61.40;;;;;;5068019;28;20274;-77
2021/04/09 10:49:39;;;;;;;13.00;5.73;;;21.80;62.70;;;;;;5070845;28;20206;-77
2021/04/09 10:52:15;;;;;;;12.17;6.13;;;21.80;63.40;;;;;;5067340;28;20182;-77
2021/04/09 10:54:44;;;;;;;12.20;5.67;;;21.20;64.60;;;;;;5057395;28;20196;-77
2021/04/09 10:57:12;;;;;;;14.60;6.10;;;21.10;64.40;;;;;;5069328;28;20191;-77
2021/04/09 10:59:44;;;;;;;12.90;5.93;;;21.10;64.50;;;;;;5068703;28;20651;-77
2021/04/09 11:02:18;;;;;;;10.93;5.43;;;21.10;66.70;;;;;;5066678;28;20193;-77
2021/04/09 11:04:52;;;;;;;11.37;5.87;;;21.50;64.40;;;;;;5067634;28;20273;-77
2021/04/09 11:07:18;;;;;;;11.63;5.83;;;21.40;64.80;;;;;;5067913;28;20198;-76
2021/04/09 11:09:49;;;;;;;10.73;5.53;;;21.90;63.40;;;;;;5070427;28;20208;-76
2021/04/09 11:12:16;;;;;;;15.10;6.40;;;22.60;64.40;;;;;;5069533;28;20177;-75
2021/04/09 11:14:43;;;;;;;12.73;6.10;;;22.70;62.70;;;;;;5069845;28;20178;-76
2021/04/09 11:17:08;;;;;;;12.07;5.90;;;22.30;63.70;;;;;;5066278;28;20189;-76
2021/04/09 11:19:37;;;;;;;12.60;6.53;;;22.00;65.70;;;;;;5072110;28;20184;-76
2021/04/09 11:22:05;;;;;;;13.03;6.07;;;21.70;63.90;;;;;;5069874;28;20275;-77
2021/04/09 11:24:38;;;;;;;14.27;6.60;;;20.90;65.00;;;;;;5068325;28;20601;-77
2021/04/09 11:27:18;;;;;;;13.40;6.00;;;20.30;68.10;;;;;;5072503;28;20176;-78
2021/04/09 11:29:44;;;;;;;13.33;6.70;;;20.10;68.30;;;;;;5064493;28;20207;-77
2021/04/09 11:32:18;;;;;;;14.77;5.97;;;20.20;68.30;;;;;;5069165;28;20645;-77
2021/04/09 11:34:46;;;;;;;11.33;5.53;;;19.80;69.90;;;;;;5076508;28;20184;-77
2021/04/09 11:37:14;;;;;;;10.03;5.30;;;20.80;68.20;;;;;;5069346;28;20176;-76
2021/04/09 11:39:49;;;;;;;10.20;5.10;;;21.80;65.00;;;;;;5068577;28;20187;-77
2021/04/09 11:42:25;;;;;;;12.13;5.43;;;22.20;64.70;;;;;;5061665;28;21592;-77
2021/04/09 11:44:50;;;;;;;11.27;5.20;;;22.30;61.10;;;;;;5067120;28;20644;-77
2021/04/09 11:47:29;;;;;;;13.00;5.33;;;22.10;62.70;;;;;;5067809;28;20178;-76
2021/04/09 11:50:01;;;;;;;15.37;5.93;;;21.20;64.50;;;;;;5068361;28;20224;-78
2021/04/09 11:52:27;;;;;;;15.53;5.97;;;21.60;63.70;;;;;;5068392;28;20178;-77
2021/04/09 11:54:53;;;;;;;10.80;5.43;;;21.80;62.50;;;;;;5068556;28;20208;-77
2021/04/09 11:57:24;;;;;;;13.73;6.17;;;21.50;63.20;;;;;;5071447;28;20189;-77
2021/04/09 11:59:51;;;;;;;13.53;5.90;;;20.80;65.30;;;;;;5068818;28;20189;-77
2021/04/09 12:02:28;;;;;;;14.33;6.27;;;20.70;67.10;;;;;;5065022;28;20226;-77
2021/04/09 12:04:55;;;;;;;14.23;5.70;;;21.10;64.90;;;;;;5065085;28;20191;-77
2021/04/09 12:07:23;;;;;;;11.47;5.27;;;21.00;64.50;;;;;;5066236;28;21015;-77
2021/04/09 12:09:57;;;;;;;12.27;5.50;;;21.70;64.30;;;;;;5069530;28;20315;-77
2021/04/09 12:12:24;;;;;;;10.57;5.20;;;21.60;63.80;;;;;;5064479;28;20188;-78
2021/04/09 12:15:00;;;;;;;9.23;5.33;;;21.60;62.10;;;;;;5072495;28;20188;-77
2021/04/09 12:17:25;;;;;;;11.83;5.20;;;21.50;64.30;;;;;;5073532;28;20173;-75
2021/04/09 12:19:53;;;;;;;13.07;6.03;;;21.30;62.70;;;;;;5068169;28;20254;-76
2021/04/09 12:22:19;;;;;;;11.80;5.90;;;20.80;62.40;;;;;;5073456;28;20275;-77
2021/04/09 12:24:45;;;;;;;11.63;6.23;;;19.90;67.30;;;;;;5071664;28;20609;-77
2021/04/09 12:27:12;;;;;;;14.43;7.13;;;20.30;68.60;;;;;;5071131;28;20696;-78
2021/04/09 12:29:38;;;;;;;12.37;6.23;;;20.70;66.30;;;;;;5089204;28;20193;-78
2021/04/09 12:32:06;;;;;;;10.43;5.70;;;21.70;64.60;;;;;;5071872;28;20188;-77
2021/04/09 12:34:32;;;;;;;12.63;5.70;;;21.90;63.20;;;;;;5074452;28;20766;-77
2021/04/09 12:36:58;;;;;;;12.17;5.60;;;22.10;61.80;;;;;;5073087;28;20205;-77
2021/04/09 12:39:24;;;;;;;11.57;5.70;;;22.00;60.20;;;;;;5072389;28;20192;-76
2021/04/09 12:41:50;;;;;;;12.17;5.50;;;21.10;62.10;;;;;;5073516;28;20318;-77
2021/04/09 12:44:18;;;;;;;10.13;5.50;;;20.50;64.50;;;;;;5055394;28;20281;-77
2021/04/09 12:46:47;;;;;;;12.20;5.77;;;20.30;63.70;;;;;;5067631;28;20196;-77